Time;durP1;ratioP1;P1;durP2;ratioP2;P2;SDS_P1;SDS_P2;PMS_P1;PMS_P2;Temp;Humidity;BMP_temperature;BMP_pressure;BME280_temperature;BME280_humidity;BME280_pressure;Samples;Min_cycle;Max_cycle;Signal;HPM_P1;HPM_P2
2022/07/28 00:00:36;;;;;;;3.97;1.77;;;14.60;99.90;14.00;100409;;;;562301;251;24210;-82
2022/07/28 00:03:04;;;;;;;2.67;1.50;;;14.60;99.90;14.00;100409;;;;562338;251;24138;-82
2022/07/28 00:05:32;;;;;;;4.83;1.43;;;14.60;99.90;14.00;100408;;;;562303;251;24101;-81
2022/07/28 00:07:59;;;;;;;3.33;1.33;;;14.60;99.90;14.00;100401;;;;562204;251;24097;-82
2022/07/28 00:10:31;;;;;;;2.83;1.30;;;14.60;99.90;14.00;100407;;;;562538;251;24113;-81
2022/07/28 00:12:55;;;;;;;4.27;1.77;;;14.50;99.90;14.00;100409;;;;569132;250;24132;-82
2022/07/28 00:15:23;;;;;;;1.80;1.30;;;14.60;99.90;14.00;100400;;;;562501;251;24096;-81
2022/07/28 00:17:51;;;;;;;4.03;1.53;;;14.50;99.90;14.00;100410;;;;562415;251;24105;-81
2022/07/28 00:20:20;;;;;;;2.03;1.40;;;14.60;99.90;14.00;100405;;;;562388;251;24125;-81
2022/07/28 00:22:49;;;;;;;3.63;1.23;;;14.50;99.90;14.00;100398;;;;562416;251;24160;-82
2022/07/28 00:25:16;;;;;;;1.57;1.07;;;14.50;99.90;14.00;100394;;;;562268;251;24079;-82
2022/07/28 00:27:44;;;;;;;3.33;1.50;;;14.50;99.90;14.00;100391;;;;562179;251;24148;-80
2022/07/28 00:30:12;;;;;;;3.27;1.30;;;14.50;99.90;14.00;100394;;;;562134;251;24132;-82
2022/07/28 00:32:40;;;;;;;2.53;1.37;;;14.50;99.90;14.00;100393;;;;562153;251;24098;-81
2022/07/28 00:35:08;;;;;;;1.20;1.20;;;14.50;99.90;14.00;100406;;;;562203;251;24105;-81
2022/07/28 00:37:36;;;;;;;6.27;1.67;;;14.50;99.90;14.00;100405;;;;562187;251;24090;-83
2022/07/28 00:40:04;;;;;;;1.33;1.13;;;14.50;99.90;14.00;100404;;;;562117;251;24083;-83
2022/07/28 00:42:32;;;;;;;4.37;1.50;;;14.50;99.90;14.00;100403;;;;562354;251;24146;-82
2022/07/28 00:45:00;;;;;;;4.30;1.80;;;14.50;99.90;14.00;100406;;;;557804;251;35284;-83
2022/07/28 00:47:28;;;;;;;5.07;1.73;;;14.50;99.90;13.90;100410;;;;570474;251;24119;-82
2022/07/28 00:49:56;;;;;;;6.90;1.83;;;14.50;99.90;13.90;100400;;;;561866;251;24164;-83
2022/07/28 00:52:23;;;;;;;5.90;1.53;;;14.50;99.90;14.00;100398;;;;561834;251;24107;-83
2022/07/28 00:54:51;;;;;;;3.70;1.60;;;14.50;99.90;14.00;100399;;;;570264;248;24117;-83
2022/07/28 00:57:20;;;;;;;5.90;1.40;;;14.50;99.90;14.00;100393;;;;561791;251;24130;-82
2022/07/28 00:59:51;;;;;;;6.10;1.70;;;14.50;99.90;14.00;100398;;;;562651;250;24206;-83
2022/07/28 01:02:19;;;;;;;6.67;1.57;;;14.50;99.90;14.00;100398;;;;562683;251;24135;-82
2022/07/28 01:04:43;;;;;;;4.13;1.60;;;14.50;99.90;14.00;100407;;;;561331;251;24145;-82
2022/07/28 01:07:11;;;;;;;7.63;1.57;;;14.50;99.90;14.00;100408;;;;562915;251;24088;-83
2022/07/28 01:09:47;;;;;;;4.60;1.47;;;14.50;99.90;14.00;100403;;;;562038;251;24086;-83
2022/07/28 01:12:36;;;;;;;2.53;1.40;;;14.60;99.90;14.00;100401;;;;565132;251;24113;-84
2022/07/28 01:15:10;;;;;;;4.30;1.70;;;14.50;99.90;13.90;100401;;;;557955;251;24232;-81
2022/07/28 01:17:39;;;;;;;6.17;1.57;;;14.50;99.90;14.00;100414;;;;561767;251;24206;-83
2022/07/28 01:20:19;;;;;;;4.00;1.60;;;14.50;99.90;14.00;100409;;;;573008;248;24094;-82
2022/07/28 01:23:11;;;;;;;2.73;1.50;;;14.50;99.90;14.00;100411;;;;562107;251;24090;-82
2022/07/28 01:25:59;;;;;;;2.70;1.17;;;14.50;99.90;14.00;100408;;;;564766;250;24145;-83
2022/07/28 01:29:07;;;;;;;3.57;1.67;;;14.50;99.90;14.00;100412;;;;563819;251;24090;-83
2022/07/28 01:31:41;;;;;;;3.53;1.60;;;14.50;99.90;14.00;100418;;;;564731;251;24086;-84
2022/07/28 01:34:14;;;;;;;4.30;1.50;;;14.60;99.90;14.00;100410;;;;564720;250;24126;-82
2022/07/28 01:36:45;;;;;;;5.10;1.90;;;14.50;99.90;14.00;100408;;;;561423;251;24096;-82
2022/07/28 01:39:13;;;;;;;3.20;1.37;;;14.50;99.90;14.00;100417;;;;573017;248;24109;-82
2022/07/28 01:41:42;;;;;;;3.90;1.80;;;14.50;99.90;14.00;100408;;;;564531;251;24133;-81
2022/07/28 01:44:10;;;;;;;5.83;1.70;;;14.50;99.90;14.00;100409;;;;564505;245;24095;-82
2022/07/28 01:46:42;;;;;;;5.60;2.07;;;14.50;99.90;14.00;100407;;;;564416;251;24164;-84
2022/07/28 01:49:08;;;;;;;2.47;1.87;;;14.50;99.90;14.00;100402;;;;563876;251;24154;-83
2022/07/28 01:51:36;;;;;;;2.87;1.47;;;14.50;99.90;14.00;100400;;;;564075;251;24185;-83
2022/07/28 01:54:08;;;;;;;5.43;1.43;;;14.50;99.90;13.90;100399;;;;561188;251;24079;-83
2022/07/28 01:56:35;;;;;;;3.33;1.73;;;14.50;99.90;14.00;100409;;;;569217;248;24085;-82
2022/07/28 01:59:00;;;;;;;2.90;1.30;;;14.50;99.90;14.00;100397;;;;575977;248;24148;-82
2022/07/28 02:01:28;;;;;;;3.00;1.60;;;14.50;99.90;14.00;100409;;;;564097;250;24109;-82
2022/07/28 02:03:56;;;;;;;4.40;1.70;;;14.50;99.90;14.00;100412;;;;564043;251;24130;-82
2022/07/28 02:06:24;;;;;;;3.13;1.50;;;14.50;99.90;14.00;100407;;;;564484;251;24085;-81
2022/07/28 02:08:52;;;;;;;4.47;1.50;;;14.50;99.90;14.00;100408;;;;564512;250;24096;-82
2022/07/28 02:14:14;;;;;;;1.47;1.27;;;14.50;99.90;14.00;100402;;;;565212;251;24186;-82
2022/07/28 02:16:45;;;;;;;1.60;1.50;;;14.50;99.90;14.00;100409;;;;572656;246;24096;-83
2022/07/28 02:19:15;;;;;;;3.80;1.77;;;14.60;99.90;14.00;100404;;;;564806;251;24210;-83
2022/07/28 02:21:46;;;;;;;1.93;1.10;;;14.60;99.90;14.00;100409;;;;564839;251;24147;-83
2022/07/28 02:24:14;;;;;;;1.40;1.03;;;14.60;99.90;14.00;100408;;;;560684;251;24161;-81
2022/07/28 02:26:39;;;;;;;3.60;1.57;;;14.60;99.90;14.10;100406;;;;564491;250;24131;-82
2022/07/28 02:29:07;;;;;;;4.37;1.00;;;14.60;99.90;14.10;100406;;;;564483;251;24110;-82
2022/07/28 02:31:44;;;;;;;1.40;1.30;;;14.60;99.90;14.10;100409;;;;564253;250;24132;-81
2022/07/28 02:34:12;;;;;;;2.57;1.40;;;14.70;99.90;14.10;100412;;;;556108;251;24113;-81
2022/07/28 02:36:41;;;;;;;2.17;1.40;;;14.70;99.90;14.10;100412;;;;564338;250;24082;-83
2022/07/28 02:39:12;;;;;;;2.13;1.10;;;14.70;99.90;14.10;100412;;;;564335;251;24109;-82
2022/07/28 02:41:44;;;;;;;4.73;1.47;;;14.70;99.90;14.10;100413;;;;564059;251;24135;-83
2022/07/28 02:44:10;;;;;;;3.93;1.00;;;14.70;99.90;14.10;100420;;;;561020;251;24144;-82
2022/07/28 02:46:38;;;;;;;5.70;1.23;;;14.70;99.90;14.10;100413;;;;563866;251;24171;-82
2022/07/28 02:49:06;;;;;;;1.17;1.07;;;14.70;99.90;14.10;100420;;;;564022;251;24093;-82
2022/07/28 02:51:34;;;;;;;2.13;1.40;;;14.70;99.90;14.10;100427;;;;564066;250;24142;-83
2022/07/28 02:54:02;;;;;;;5.33;1.40;;;14.70;99.90;14.10;100425;;;;563992;251;24151;-81
2022/07/28 02:56:33;;;;;;;2.97;1.30;;;14.70;99.90;14.10;100424;;;;561108;251;24107;-82
2022/07/28 02:58:58;;;;;;;1.77;1.23;;;14.70;99.90;14.10;100424;;;;569414;248;24100;-82
2022/07/28 03:01:27;;;;;;;1.17;1.13;;;14.60;99.90;14.10;100423;;;;576541;248;24117;-82
2022/07/28 03:03:55;;;;;;;2.67;1.30;;;14.60;99.90;14.10;100431;;;;567239;249;24157;-81
2022/07/28 03:06:24;;;;;;;2.90;1.20;;;14.60;99.90;14.10;100431;;;;567095;249;24122;-81
2022/07/28 03:08:52;;;;;;;1.83;1.40;;;14.60;99.90;14.10;100431;;;;567316;249;24167;-83
2022/07/28 03:11:23;;;;;;;2.03;1.37;;;14.60;99.90;14.10;100430;;;;567788;249;24143;-83
2022/07/28 03:13:48;;;;;;;1.20;1.10;;;14.60;99.90;14.10;100431;;;;567559;249;24122;-83
2022/07/28 03:16:16;;;;;;;3.10;1.23;;;14.70;99.90;14.10;100431;;;;567762;249;24083;-81
2022/07/28 03:18:44;;;;;;;1.63;1.27;;;14.70;99.90;14.20;100428;;;;567742;249;24126;-82
2022/07/28 03:21:12;;;;;;;2.00;1.20;;;14.70;99.90;14.20;100434;;;;567747;249;24078;-82
2022/07/28 03:23:43;;;;;;;1.83;1.30;;;14.80;99.90;14.30;100432;;;;567206;248;24123;-81
2022/07/28 03:26:25;;;;;;;2.40;1.60;;;14.80;99.90;14.40;100435;;;;568585;249;25165;-82
2022/07/28 03:28:53;;;;;;;2.87;1.77;;;14.90;99.90;14.40;100437;;;;566948;249;24117;-81
2022/07/28 03:31:24;;;;;;;2.27;1.20;;;14.90;99.90;14.50;100438;;;;568344;249;24124;-82
2022/07/28 03:33:49;;;;;;;2.20;1.30;;;15.00;99.90;14.50;100438;;;;567863;249;25192;-82
2022/07/28 03:36:17;;;;;;;4.50;2.00;;;15.10;99.90;14.60;100432;;;;571907;248;37002;-83
2022/07/28 03:38:51;;;;;;;5.50;1.87;;;15.20;99.90;14.70;100435;;;;563067;249;35273;-83
2022/07/28 03:41:20;;;;;;;3.60;1.53;;;15.30;99.90;14.70;100431;;;;576038;248;24148;-82
2022/07/28 03:43:47;;;;;;;4.10;2.17;;;15.30;99.90;14.80;100439;;;;567945;249;24151;-82
2022/07/28 03:46:15;;;;;;;2.73;1.33;;;15.40;99.90;14.90;100436;;;;567939;249;24187;-82
2022/07/28 03:48:43;;;;;;;2.90;1.27;;;15.50;99.90;15.00;100437;;;;567889;249;24097;-82
2022/07/28 03:51:11;;;;;;;2.73;1.43;;;15.60;99.90;15.10;100438;;;;567921;249;24137;-83
2022/07/28 03:53:42;;;;;;;2.60;1.30;;;15.70;99.90;15.20;100447;;;;567613;249;24085;-82
2022/07/28 03:56:11;;;;;;;6.60;1.50;;;15.80;99.90;15.20;100442;;;;567107;249;24157;-84
2022/07/28 03:58:35;;;;;;;3.50;1.77;;;15.80;99.90;15.30;100446;;;;567302;249;24135;-83
2022/07/28 04:01:03;;;;;;;3.70;1.57;;;15.90;99.90;15.40;100450;;;;567334;249;24107;-83
2022/07/28 04:03:31;;;;;;;1.67;1.40;;;16.00;99.90;15.60;100445;;;;567162;249;24182;-83
2022/07/28 04:06:02;;;;;;;7.43;1.53;;;16.20;99.90;15.70;100448;;;;567525;249;24130;-83
2022/07/28 04:08:27;;;;;;;6.77;1.70;;;16.30;99.90;15.80;100455;;;;567197;249;24127;-82
2022/07/28 04:10:55;;;;;;;2.07;1.43;;;16.30;99.90;15.80;100451;;;;567635;249;24128;-83
2022/07/28 04:13:23;;;;;;;6.63;2.00;;;16.40;99.90;16.00;100455;;;;567771;249;24089;-84
2022/07/28 04:15:51;;;;;;;1.70;1.23;;;16.60;99.90;16.10;100460;;;;567794;249;24075;-82
2022/07/28 04:18:21;;;;;;;4.33;1.73;;;16.60;99.90;16.20;100454;;;;567793;249;24087;-82
2022/07/28 04:20:48;;;;;;;2.40;1.30;;;16.80;99.90;16.20;100453;;;;567821;249;24090;-83
2022/07/28 04:23:19;;;;;;;5.13;1.83;;;16.90;99.90;16.30;100459;;;;568193;249;24148;-82
2022/07/28 04:25:45;;;;;;;3.27;1.60;;;16.90;99.90;16.40;100452;;;;568619;249;24157;-82
2022/07/28 04:28:16;;;;;;;2.23;1.47;;;17.00;99.90;16.50;100456;;;;568415;249;24096;-83
2022/07/28 04:30:41;;;;;;;13.83;2.17;;;17.00;99.90;16.50;100456;;;;568029;249;24083;-85
2022/07/28 04:33:09;;;;;;;6.67;1.60;;;17.10;99.90;16.60;100451;;;;568023;249;24126;-82
2022/07/28 04:35:37;;;;;;;5.57;1.50;;;17.20;99.90;16.80;100452;;;;569193;248;24076;-82
2022/07/28 04:38:05;;;;;;;4.53;1.83;;;17.30;99.90;17.00;100453;;;;568696;249;25265;-84
2022/07/28 04:40:33;;;;;;;7.27;1.90;;;17.60;99.90;17.10;100463;;;;573391;249;24093;-83
2022/07/28 04:43:02;;;;;;;6.17;1.80;;;17.70;99.90;17.10;100465;;;;568266;249;24090;-83
2022/07/28 04:45:31;;;;;;;3.00;1.30;;;17.70;99.90;17.00;100464;;;;568070;249;24081;-83
2022/07/28 04:47:57;;;;;;;4.50;1.30;;;17.60;99.90;16.90;100467;;;;576518;249;24125;-83
2022/07/28 04:50:26;;;;;;;7.63;2.13;;;17.50;99.90;16.90;100467;;;;568050;249;24069;-84
2022/07/28 04:52:54;;;;;;;3.43;1.57;;;17.50;99.90;16.80;100463;;;;567902;249;24101;-84
2022/07/28 04:55:22;;;;;;;7.83;1.83;;;17.40;99.90;16.70;100467;;;;567411;249;24091;-84
2022/07/28 04:57:50;;;;;;;3.87;1.70;;;17.30;99.90;16.70;100465;;;;567600;249;24117;-84
2022/07/28 05:00:17;;;;;;;2.90;1.70;;;17.30;99.90;16.60;100461;;;;567489;249;24084;-84
2022/07/28 05:02:46;;;;;;;7.10;2.37;;;17.20;99.90;16.60;100469;;;;567430;249;24157;-83
2022/07/28 05:05:13;;;;;;;4.23;1.70;;;17.10;99.90;16.50;100478;;;;576101;249;24131;-82
2022/07/28 05:07:41;;;;;;;4.57;1.50;;;17.10;99.90;16.50;100478;;;;567463;249;24132;-83
2022/07/28 05:10:09;;;;;;;5.73;1.77;;;17.10;99.90;16.50;100485;;;;567864;249;24122;-83
2022/07/28 05:12:41;;;;;;;6.13;1.77;;;17.10;99.90;16.50;100483;;;;567220;249;24175;-83
2022/07/28 05:15:05;;;;;;;2.07;1.17;;;17.00;99.90;16.60;100496;;;;567386;249;24186;-84
2022/07/28 05:17:37;;;;;;;2.90;1.30;;;17.10;99.90;16.50;100493;;;;567242;249;24211;-84
2022/07/28 05:20:01;;;;;;;6.53;1.90;;;17.10;99.90;16.60;100493;;;;568321;248;24090;-83
2022/07/28 05:22:29;;;;;;;5.73;2.00;;;17.10;99.90;16.60;100498;;;;569849;248;24085;-84
2022/07/28 05:24:57;;;;;;;7.47;1.73;;;17.20;99.90;16.70;100500;;;;580027;242;24063;-84
2022/07/28 05:27:24;;;;;;;27.90;2.33;;;17.30;99.90;16.70;100500;;;;567815;248;24181;-84
2022/07/28 05:29:52;;;;;;;9.80;2.33;;;17.30;99.90;16.90;100515;;;;560095;251;24107;-83
2022/07/28 05:32:20;;;;;;;2.03;1.23;;;17.40;99.90;17.00;100515;;;;564523;242;24175;-83
2022/07/28 05:34:48;;;;;;;6.97;1.60;;;17.50;99.90;17.00;100519;;;;573655;247;24149;-83
2022/07/28 05:37:16;;;;;;;5.13;1.63;;;17.60;99.90;17.10;100518;;;;573892;246;24067;-83
2022/07/28 05:39:44;;;;;;;4.47;1.87;;;17.60;99.90;17.20;100521;;;;571153;247;24166;-83
2022/07/28 05:42:12;;;;;;;8.33;1.40;;;17.70;99.90;17.20;100523;;;;559780;251;24109;-83
2022/07/28 05:44:40;;;;;;;6.67;1.50;;;17.80;99.90;17.30;100532;;;;565195;251;24219;-83
2022/07/28 05:47:08;;;;;;;6.07;1.80;;;17.90;99.90;17.40;100531;;;;566276;250;24494;-83
2022/07/28 05:49:37;;;;;;;37.07;4.20;;;18.00;99.90;17.50;100531;;;;565819;247;24110;-83
2022/07/28 05:52:04;;;;;;;35.00;4.03;;;18.00;99.90;17.60;100537;;;;560768;251;35489;-83
2022/07/28 05:54:32;;;;;;;5.30;1.53;;;18.20;99.90;17.70;100540;;;;570908;251;24158;-83
2022/07/28 05:57:00;;;;;;;7.77;2.03;;;18.20;99.90;17.70;100539;;;;570571;251;24229;-82
2022/07/28 05:59:28;;;;;;;3.97;1.87;;;18.30;99.90;17.80;100546;;;;562312;251;24108;-82
2022/07/28 06:01:56;;;;;;;5.80;1.90;;;18.40;99.90;17.90;100547;;;;562219;251;24128;-83
2022/07/28 06:04:24;;;;;;;3.73;1.93;;;18.50;99.90;17.90;100549;;;;562501;251;24112;-83
2022/07/28 06:06:52;;;;;;;8.43;1.87;;;18.50;99.90;18.00;100556;;;;562418;251;24100;-84
2022/07/28 06:09:20;;;;;;;6.83;2.03;;;18.60;99.90;18.10;100547;;;;562362;251;24104;-79
2022/07/28 06:11:49;;;;;;;9.70;1.67;;;18.60;99.90;18.10;100559;;;;562100;251;24146;-80
2022/07/28 06:14:16;;;;;;;27.57;3.17;;;18.60;99.90;18.10;100548;;;;562344;251;24101;-83
2022/07/28 06:16:44;;;;;;;11.37;1.53;;;18.70;99.90;18.20;100547;;;;561961;251;25193;-84
2022/07/28 06:19:12;;;;;;;10.50;1.83;;;18.70;99.90;18.20;100553;;;;561693;251;24136;-83
2022/07/28 06:21:39;;;;;;;13.40;2.03;;;18.70;99.90;18.20;100559;;;;561717;251;24125;-84
2022/07/28 06:24:10;;;;;;;8.80;1.50;;;18.70;99.90;18.30;100557;;;;561511;251;24200;-82
2022/07/28 06:26:36;;;;;;;4.67;1.70;;;18.80;99.90;18.40;100562;;;;561319;251;24148;-83
2022/07/28 06:29:06;;;;;;;21.77;2.40;;;18.90;99.90;18.50;100552;;;;561267;251;24150;-83
2022/07/28 06:31:34;;;;;;;4.83;1.80;;;19.00;99.90;18.50;100560;;;;561363;251;24172;-83
2022/07/28 06:33:59;;;;;;;8.20;1.80;;;19.10;99.90;18.60;100570;;;;561523;251;24147;-83
2022/07/28 06:36:27;;;;;;;11.80;1.90;;;19.10;99.90;18.60;100562;;;;561918;251;24119;-83
2022/07/28 06:38:59;;;;;;;11.87;1.70;;;19.10;99.90;18.70;100572;;;;561962;251;24111;-84
2022/07/28 06:41:24;;;;;;;3.03;1.30;;;19.50;99.90;19.00;100568;;;;561649;251;24119;-82
2022/07/28 06:43:52;;;;;;;3.17;1.40;;;19.90;99.90;19.40;100570;;;;562143;251;24105;-82
2022/07/28 06:46:21;;;;;;;2.37;1.10;;;20.50;99.90;20.10;100568;;;;561797;251;24130;-85
2022/07/28 06:48:50;;;;;;;5.30;1.80;;;20.40;99.90;20.70;100593;;;;561580;251;24170;-80
2022/07/28 06:51:18;;;;;;;10.33;2.20;;;21.10;99.90;21.80;100582;;;;568844;251;24165;-84
2022/07/28 06:53:47;;;;;;;8.47;2.10;;;22.00;99.90;23.00;100592;;;;565475;242;24115;-83
2022/07/28 06:56:14;;;;;;;15.57;1.83;;;23.20;99.90;23.90;100600;;;;565765;249;24113;-87
2022/07/28 06:58:42;;;;;;;3.93;1.63;;;24.20;99.90;24.30;100601;;;;571755;246;24132;-86
2022/07/28 07:01:14;;;;;;;4.50;1.50;;;25.50;99.90;25.30;100594;;;;568688;246;24084;-85
2022/07/28 07:03:43;;;;;;;5.07;1.03;;;26.70;99.50;26.60;100594;;;;571122;247;24095;-86
2022/07/28 07:06:10;;;;;;;32.42;2.95;;;26.70;99.30;27.60;100599;;;;556584;249;46263;-85
2022/07/28 07:08:35;;;;;;;8.50;1.47;;;27.80;95.10;29.30;100602;;;;564273;250;23100;-86
2022/07/28 07:11:06;;;;;;;6.75;1.73;;;29.40;91.60;31.60;100602;;;;564533;251;23135;-86
2022/07/28 07:13:31;;;;;;;29.85;2.92;;;31.50;82.10;32.40;100614;;;;564808;248;23095;-86
2022/07/28 07:15:59;;;;;;;44.35;4.78;;;32.60;71.90;32.10;100606;;;;556776;251;35245;-85
2022/07/28 07:18:30;;;;;;;41.70;4.43;;;32.60;67.30;33.00;100607;;;;561887;251;24118;-86
2022/07/28 07:20:55;;;;;;;9.00;1.87;;;33.40;65.00;33.80;100617;;;;564661;251;23106;-86
2022/07/28 07:23:23;;;;;;;4.15;1.58;;;34.30;60.50;32.90;100620;;;;564828;251;24140;-86
2022/07/28 07:25:50;;;;;;;7.75;2.33;;;33.80;58.60;31.70;100627;;;;564609;251;23134;-85
2022/07/28 07:28:18;;;;;;;5.47;1.25;;;32.80;59.10;30.90;100634;;;;562125;251;23153;-84
2022/07/28 07:30:47;;;;;;;13.98;2.12;;;31.90;60.80;29.70;100627;;;;562058;251;24147;-86
2022/07/28 07:33:14;;;;;;;42.25;4.68;;;30.80;62.80;29.00;100639;;;;562098;251;23140;-86
2022/07/28 07:35:42;;;;;;;9.82;2.78;;;29.90;65.80;28.80;100646;;;;562189;251;23071;-88
2022/07/28 07:38:10;;;;;;;64.72;6.37;;;29.50;67.60;28.40;100644;;;;562267;251;23154;-88
2022/07/28 07:40:38;;;;;;;35.80;3.08;;;29.10;67.90;28.20;100641;;;;565405;251;23129;-86
2022/07/28 07:43:06;;;;;;;72.68;7.95;;;28.80;69.20;28.10;100645;;;;564828;250;23157;-86
2022/07/28 07:45:34;;;;;;;27.77;2.63;;;28.60;70.10;27.80;100655;;;;562182;251;23097;-86
2022/07/28 07:48:05;;;;;;;31.53;5.43;;;28.40;70.20;27.20;100651;;;;562260;251;23185;-86
2022/07/28 07:50:33;;;;;;;18.33;2.53;;;27.90;71.70;26.70;100654;;;;564311;251;23106;-86
2022/07/28 07:53:01;;;;;;;11.73;1.67;;;27.40;72.70;26.10;100661;;;;564568;251;23103;-86
2022/07/28 07:55:29;;;;;;;7.17;1.57;;;26.80;75.60;25.60;100662;;;;564488;251;23099;-87
2022/07/28 07:57:53;;;;;;;16.50;2.13;;;26.20;76.90;25.50;100659;;;;561205;251;23107;-86
2022/07/28 08:00:25;;;;;;;8.17;1.67;;;26.00;78.50;25.60;100669;;;;570612;249;23119;-86
2022/07/28 08:02:50;;;;;;;16.43;1.83;;;26.00;79.00;25.70;100669;;;;569572;251;27287;-85
2022/07/28 08:05:18;;;;;;;26.27;2.67;;;26.10;79.30;26.30;100667;;;;564038;251;23142;-86
2022/07/28 08:07:46;;;;;;;15.30;1.77;;;26.60;77.70;27.00;100669;;;;564335;251;23174;-85
2022/07/28 08:10:14;;;;;;;29.93;3.20;;;27.20;77.00;28.00;100672;;;;562747;250;23134;-86
2022/07/28 08:12:42;;;;;;;5.77;2.27;;;28.10;75.60;29.00;100669;;;;562605;250;23127;-85
2022/07/28 08:15:13;;;;;;;26.40;2.92;;;29.20;71.90;29.90;100677;;;;562418;251;23342;-87
2022/07/28 08:17:38;;;;;;;2.55;1.02;;;30.10;70.40;30.90;100683;;;;565045;247;23167;-81
2022/07/28 08:20:07;;;;;;;3.42;1.45;;;31.60;65.00;31.40;100673;;;;578078;244;23109;-80
2022/07/28 08:22:35;;;;;;;20.90;2.85;;;31.60;64.90;31.80;100683;;;;566461;249;23143;-82
2022/07/28 08:25:06;;;;;;;7.90;1.90;;;32.10;63.60;32.70;100678;;;;564963;249;23164;-83
2022/07/28 08:27:32;;;;;;;32.70;2.67;;;34.20;59.40;34.00;100686;;;;565977;249;23104;-83
2022/07/28 08:30:00;;;;;;;61.55;5.87;;;34.10;59.30;34.90;100687;;;;566186;249;24149;-82
2022/07/28 08:32:31;;;;;;;31.77;3.45;;;35.60;56.00;35.10;100695;;;;565975;249;23122;-81
2022/07/28 08:34:59;;;;;;;10.23;1.60;;;35.50;56.00;34.40;100696;;;;566152;249;23122;-83
2022/07/28 08:37:30;;;;;;;26.02;2.67;;;35.20;55.40;34.40;100699;;;;566099;249;23181;-81
2022/07/28 08:39:55;;;;;;;9.57;1.67;;;34.90;55.30;36.00;100702;;;;565928;249;23145;-82
2022/07/28 08:42:38;;;;;;;5.43;1.58;;;37.50;52.50;37.40;100702;;;;565971;249;23214;-83
2022/07/28 08:45:09;;;;;;;11.70;2.25;;;37.40;51.80;38.50;100708;;;;566022;249;23106;-82
2022/07/28 08:47:35;;;;;;;16.12;2.72;;;38.80;48.80;38.10;100715;;;;565649;249;23118;-84
2022/07/28 08:50:04;;;;;;;8.40;1.52;;;38.40;48.40;37.50;100712;;;;565753;249;23123;-83
2022/07/28 08:52:32;;;;;;;5.55;1.58;;;38.40;48.40;35.60;100711;;;;562219;247;23113;-84
2022/07/28 08:55:00;;;;;;;9.40;1.77;;;37.10;49.70;34.00;100714;;;;562833;249;23123;-84
2022/07/28 08:57:30;;;;;;;15.10;3.03;;;35.40;52.00;32.60;100712;;;;565881;249;24082;-80
2022/07/28 08:59:58;;;;;;;55.85;5.57;;;33.90;53.70;31.00;100713;;;;564947;249;23104;-80
2022/07/28 09:02:29;;;;;;;6.15;1.80;;;32.30;56.00;30.30;100717;;;;560891;251;23198;-83
2022/07/28 09:04:58;;;;;;;15.95;2.60;;;31.20;58.40;30.80;100720;;;;547822;256;23152;-83
2022/07/28 09:07:22;;;;;;;9.48;1.65;;;31.10;60.00;31.30;100718;;;;562814;251;23159;-81
2022/07/28 09:09:50;;;;;;;10.73;2.70;;;31.40;59.30;32.20;100723;;;;558118;249;23139;-85
2022/07/28 09:12:18;;;;;;;9.85;1.40;;;32.40;58.10;32.00;100730;;;;571634;249;23096;-79
2022/07/28 09:14:50;;;;;;;6.15;1.30;;;31.80;57.20;31.10;100729;;;;571753;247;23063;-84
2022/07/28 09:17:15;;;;;;;9.30;1.15;;;31.00;58.10;30.10;100735;;;;563426;251;23083;-80
2022/07/28 09:19:44;;;;;;;12.13;2.47;;;30.00;59.60;29.10;100729;;;;576594;242;24090;-79
2022/07/28 09:22:15;;;;;;;8.07;1.60;;;29.90;59.60;28.40;100727;;;;571719;249;23139;-82
2022/07/28 09:24:40;;;;;;;9.25;1.42;;;29.20;61.90;30.10;100721;;;;560698;248;23144;-82
2022/07/28 09:27:08;;;;;;;8.38;1.30;;;30.00;62.90;33.30;100723;;;;573595;246;24057;-82
2022/07/28 09:29:39;;;;;;;59.97;7.57;;;33.00;58.20;36.00;100745;;;;563942;250;23097;-81
2022/07/28 09:32:04;;;;;;;13.40;1.73;;;35.80;53.70;35.40;100740;;;;562826;254;23188;-82
2022/07/28 09:34:47;;;;;;;5.50;1.60;;;36.40;50.30;33.50;100738;;;;555563;254;23137;-83
2022/07/28 09:37:20;;;;;;;20.25;2.70;;;35.20;50.60;30.90;100730;;;;563994;252;23123;-84
2022/07/28 09:39:53;;;;;;;7.30;1.92;;;30.80;56.80;29.10;100748;;;;550825;254;24161;-83
2022/07/28 09:42:18;;;;;;;6.57;1.67;;;29.10;59.70;27.70;100738;;;;555243;254;23135;-81
2022/07/28 09:44:46;;;;;;;4.60;1.40;;;28.20;62.80;27.20;100740;;;;563482;254;23132;-82
2022/07/28 09:47:27;;;;;;;2.63;1.30;;;28.10;62.70;27.30;100741;;;;554123;254;23187;-82
2022/07/28 09:49:51;;;;;;;2.97;0.98;;;27.90;64.80;27.40;100735;;;;555264;254;23156;-84
2022/07/28 09:52:31;;;;;;;2.40;1.37;;;27.80;65.10;27.70;100740;;;;555494;254;23128;-84
2022/07/28 09:55:04;;;;;;;2.62;1.00;;;27.90;65.30;28.30;100738;;;;555428;254;23172;-82
2022/07/28 09:57:33;;;;;;;4.75;1.10;;;28.60;63.70;28.40;100739;;;;555181;252;23133;-87
2022/07/28 10:00:00;;;;;;;13.30;1.52;;;28.80;63.00;28.80;100741;;;;551287;255;24188;-85
2022/07/28 10:02:31;;;;;;;18.17;2.37;;;29.10;63.50;29.10;100742;;;;554459;255;23138;-80
2022/07/28 10:04:59;;;;;;;3.05;1.02;;;29.50;62.40;28.90;100755;;;;562654;255;23151;-78
2022/07/28 10:07:24;;;;;;;10.52;1.23;;;29.00;60.80;28.30;100753;;;;558709;250;24134;-79
2022/07/28 10:10:02;;;;;;;14.68;2.90;;;28.50;61.70;27.70;100751;;;;554741;255;23113;-76
2022/07/28 10:12:33;;;;;;;19.80;2.17;;;28.40;61.60;27.40;100747;;;;554527;254;23132;-80
2022/07/28 10:16:09;;;;;;;3.13;1.17;;;28.00;62.90;27.10;100744;;;;554032;255;23190;-78
2022/07/28 10:17:28;;;;;;;20.40;3.03;;;27.70;63.70;27.10;100750;;;;561244;250;23166;-77
2022/07/28 10:19:57;;;;;;;13.03;1.63;;;27.60;64.90;27.00;100751;;;;551294;255;23184;-78
2022/07/28 10:22:24;;;;;;;4.43;1.03;;;27.50;66.20;27.00;100764;;;;554517;253;23170;-79
2022/07/28 10:24:55;;;;;;;12.13;1.90;;;27.40;66.20;26.80;100763;;;;551277;255;23144;-81
2022/07/28 10:27:24;;;;;;;13.67;2.07;;;27.30;66.20;26.70;100760;;;;555384;253;23094;-77
2022/07/28 10:29:57;;;;;;;9.70;1.90;;;27.00;67.30;26.50;100755;;;;559826;253;24112;-77
2022/07/28 10:32:28;;;;;;;78.47;7.13;;;26.90;67.20;26.70;100754;;;;568638;251;23146;-75
2022/07/28 10:35:11;;;;;;;13.33;1.97;;;27.00;68.30;26.90;100762;;;;560282;253;24091;-77
2022/07/28 10:37:58;;;;;;;6.13;1.30;;;27.30;68.30;26.90;100760;;;;563669;253;24104;-77
2022/07/28 10:40:26;;;;;;;13.03;2.40;;;27.10;67.60;26.70;100760;;;;568685;252;23118;-77
2022/07/28 10:42:55;;;;;;;22.23;2.60;;;27.00;67.60;26.70;100762;;;;569995;249;24076;-78
2022/07/28 10:45:26;;;;;;;11.33;2.23;;;27.00;68.10;26.60;100759;;;;568347;252;23196;-79
2022/07/28 10:47:51;;;;;;;58.60;6.00;;;27.00;68.70;26.50;100773;;;;561029;252;24154;-78
2022/07/28 10:50:20;;;;;;;25.13;2.70;;;26.80;68.80;26.30;100767;;;;583247;245;26279;-78
2022/07/28 10:52:47;;;;;;;9.20;1.77;;;26.70;68.70;26.10;100768;;;;562510;251;24098;-79
2022/07/28 10:55:27;;;;;;;8.67;1.17;;;26.60;68.30;25.90;100766;;;;562732;249;23121;-78
2022/07/28 10:58:20;;;;;;;1.97;0.83;;;26.30;68.70;25.80;100770;;;;559331;249;23123;-76
2022/07/28 11:00:50;;;;;;;52.53;6.07;;;26.20;68.60;25.60;100771;;;;567605;248;23133;-78
2022/07/28 11:03:43;;;;;;;17.47;2.03;;;26.00;69.40;25.40;100768;;;;570329;249;23107;-80
2022/07/28 11:06:44;;;;;;;13.43;1.60;;;25.80;70.40;25.20;100766;;;;563762;245;24147;-78
2022/07/28 11:08:59;;;;;;;7.90;1.30;;;25.70;71.30;24.90;100767;;;;563861;249;23091;-78
2022/07/28 11:11:45;;;;;;;11.67;1.70;;;25.40;72.20;24.50;100768;;;;577160;245;23178;-77
2022/07/28 11:14:26;;;;;;;2.27;1.30;;;25.00;73.40;24.20;100764;;;;562489;249;22998;-77
2022/07/28 11:17:05;;;;;;;6.03;1.10;;;24.70;74.90;24.10;100776;;;;570880;249;23081;-77
2022/07/28 11:19:45;;;;;;;4.07;1.00;;;24.60;75.80;23.90;100780;;;;557114;252;24143;-77